sensor_id;sensor_type;location;lat;lon;timestamp;temperature;humidity
59146;DHT22;44928;53.074;6.646;2023-04-24T00:00:04;11.50;99.90
59146;DHT22;44928;53.074;6.646;2023-04-24T00:02:44;11.50;99.90
59146;DHT22;44928;53.074;6.646;2023-04-24T00:05:14;11.40;99.90
59146;DHT22;44928;53.074;6.646;2023-04-24T00:07:41;11.40;99.90
59146;DHT22;44928;53.074;6.646;2023-04-24T00:10:08;11.30;99.90
59146;DHT22;44928;53.074;6.646;2023-04-24T00:12:34;11.30;99.90
59146;DHT22;44928;53.074;6.646;2023-04-24T00:15:00;11.30;99.90
59146;DHT22;44928;53.074;6.646;2023-04-24T00:17:26;11.30;99.90
59146;DHT22;44928;53.074;6.646;2023-04-24T00:19:52;11.20;99.90
59146;DHT22;44928;53.074;6.646;2023-04-24T00:22:27;11.20;99.90
59146;DHT22;44928;53.074;6.646;2023-04-24T00:24:53;11.20;99.90
59146;DHT22;44928;53.074;6.646;2023-04-24T00:27:19;11.10;99.90
59146;DHT22;44928;53.074;6.646;2023-04-24T00:29:44;11.10;99.90
59146;DHT22;44928;53.074;6.646;2023-04-24T00:32:10;11.10;99.90
59146;DHT22;44928;53.074;6.646;2023-04-24T00:34:36;11.10;99.90
59146;DHT22;44928;53.074;6.646;2023-04-24T00:37:02;11.10;99.90
59146;DHT22;44928;53.074;6.646;2023-04-24T00:39:28;11.10;99.90
59146;DHT22;44928;53.074;6.646;2023-04-24T00:41:53;11.10;99.90
59146;DHT22;44928;53.074;6.646;2023-04-24T00:44:20;11.10;99.90
59146;DHT22;44928;53.074;6.646;2023-04-24T00:46:47;11.10;99.90
59146;DHT22;44928;53.074;6.646;2023-04-24T00:49:18;11.10;99.90
59146;DHT22;44928;53.074;6.646;2023-04-24T00:51:44;11.00;99.90
59146;DHT22;44928;53.074;6.646;2023-04-24T00:54:13;11.00;99.90
59146;DHT22;44928;53.074;6.646;2023-04-24T00:56:40;11.00;99.90
59146;DHT22;44928;53.074;6.646;2023-04-24T00:59:06;11.00;99.90
59146;DHT22;44928;53.074;6.646;2023-04-24T01:01:32;11.00;99.90
59146;DHT22;44928;53.074;6.646;2023-04-24T01:03:59;11.00;99.90
59146;DHT22;44928;53.074;6.646;2023-04-24T01:06:28;10.90;99.90
59146;DHT22;44928;53.074;6.646;2023-04-24T01:08:54;10.90;99.90
59146;DHT22;44928;53.074;6.646;2023-04-24T01:11:24;10.80;99.90
59146;DHT22;44928;53.074;6.646;2023-04-24T01:13:51;10.90;99.90
59146;DHT22;44928;53.074;6.646;2023-04-24T01:16:17;10.80;99.90
59146;DHT22;44928;53.074;6.646;2023-04-24T01:18:46;10.80;99.90
59146;DHT22;44928;53.074;6.646;2023-04-24T01:21:13;10.80;99.90
59146;DHT22;44928;53.074;6.646;2023-04-24T01:23:40;10.80;99.90
59146;DHT22;44928;53.074;6.646;2023-04-24T01:26:06;10.80;99.90
59146;DHT22;44928;53.074;6.646;2023-04-24T01:28:32;10.70;99.90
59146;DHT22;44928;53.074;6.646;2023-04-24T01:30:58;10.70;99.90
59146;DHT22;44928;53.074;6.646;2023-04-24T01:33:25;10.70;99.90
59146;DHT22;44928;53.074;6.646;2023-04-24T01:35:51;10.70;99.90
59146;DHT22;44928;53.074;6.646;2023-04-24T01:38:17;10.70;99.90
59146;DHT22;44928;53.074;6.646;2023-04-24T01:40:43;10.70;99.90
59146;DHT22;44928;53.074;6.646;2023-04-24T01:43:09;10.60;99.90
59146;DHT22;44928;53.074;6.646;2023-04-24T01:45:35;10.50;99.90
59146;DHT22;44928;53.074;6.646;2023-04-24T01:48:00;10.50;99.90
59146;DHT22;44928;53.074;6.646;2023-04-24T01:50:26;10.50;99.90
59146;DHT22;44928;53.074;6.646;2023-04-24T01:52:52;10.50;99.90
59146;DHT22;44928;53.074;6.646;2023-04-24T01:55:18;10.50;99.90
59146;DHT22;44928;53.074;6.646;2023-04-24T01:57:44;10.50;99.90
59146;DHT22;44928;53.074;6.646;2023-04-24T02:00:10;10.50;99.90
59146;DHT22;44928;53.074;6.646;2023-04-24T02:02:38;10.40;99.90
59146;DHT22;44928;53.074;6.646;2023-04-24T02:05:06;10.40;99.90
59146;DHT22;44928;53.074;6.646;2023-04-24T02:07:33;10.40;99.90
59146;DHT22;44928;53.074;6.646;2023-04-24T02:09:59;10.40;99.90
59146;DHT22;44928;53.074;6.646;2023-04-24T02:12:25;10.30;99.90
59146;DHT22;44928;53.074;6.646;2023-04-24T02:14:50;10.40;99.90
59146;DHT22;44928;53.074;6.646;2023-04-24T02:17:16;10.40;99.90
59146;DHT22;44928;53.074;6.646;2023-04-24T02:19:43;10.40;99.90
59146;DHT22;44928;53.074;6.646;2023-04-24T02:22:08;10.30;99.90
59146;DHT22;44928;53.074;6.646;2023-04-24T02:24:36;10.40;99.90
59146;DHT22;44928;53.074;6.646;2023-04-24T02:27:02;10.40;99.90
59146;DHT22;44928;53.074;6.646;2023-04-24T02:29:28;10.40;99.90
59146;DHT22;44928;53.074;6.646;2023-04-24T02:31:54;10.40;99.90
59146;DHT22;44928;53.074;6.646;2023-04-24T02:34:20;10.40;99.90
59146;DHT22;44928;53.074;6.646;2023-04-24T02:36:45;10.40;99.90
59146;DHT22;44928;53.074;6.646;2023-04-24T02:39:11;10.40;99.90
59146;DHT22;44928;53.074;6.646;2023-04-24T02:41:38;10.40;99.90
59146;DHT22;44928;53.074;6.646;2023-04-24T02:44:04;10.40;99.90
59146;DHT22;44928;53.074;6.646;2023-04-24T02:46:30;10.40;99.90
59146;DHT22;44928;53.074;6.646;2023-04-24T02:48:56;10.30;99.90
59146;DHT22;44928;53.074;6.646;2023-04-24T02:51:21;10.30;99.90
59146;DHT22;44928;53.074;6.646;2023-04-24T02:53:47;10.40;99.90
59146;DHT22;44928;53.074;6.646;2023-04-24T02:56:13;10.40;99.90
59146;DHT22;44928;53.074;6.646;2023-04-24T02:58:39;10.30;99.90
59146;DHT22;44928;53.074;6.646;2023-04-24T03:01:05;10.30;99.90
59146;DHT22;44928;53.074;6.646;2023-04-24T03:03:30;10.30;99.90
59146;DHT22;44928;53.074;6.646;2023-04-24T03:05:56;10.30;99.90
59146;DHT22;44928;53.074;6.646;2023-04-24T03:08:23;10.30;99.90
59146;DHT22;44928;53.074;6.646;2023-04-24T03:10:48;10.30;99.90
59146;DHT22;44928;53.074;6.646;2023-04-24T03:13:15;10.30;99.90
59146;DHT22;44928;53.074;6.646;2023-04-24T03:15:41;10.20;99.90
59146;DHT22;44928;53.074;6.646;2023-04-24T03:18:07;10.20;99.90
59146;DHT22;44928;53.074;6.646;2023-04-24T03:20:33;10.20;99.90
59146;DHT22;44928;53.074;6.646;2023-04-24T03:22:59;10.20;99.90
59146;DHT22;44928;53.074;6.646;2023-04-24T03:25:25;10.20;99.90
59146;DHT22;44928;53.074;6.646;2023-04-24T03:27:51;10.20;99.90
59146;DHT22;44928;53.074;6.646;2023-04-24T03:30:17;10.10;99.90
59146;DHT22;44928;53.074;6.646;2023-04-24T03:32:42;10.10;99.90
59146;DHT22;44928;53.074;6.646;2023-04-24T03:35:08;10.10;99.90
59146;DHT22;44928;53.074;6.646;2023-04-24T03:37:34;10.10;99.90
59146;DHT22;44928;53.074;6.646;2023-04-24T03:40:01;10.10;99.90
59146;DHT22;44928;53.074;6.646;2023-04-24T03:42:27;10.10;99.90
59146;DHT22;44928;53.074;6.646;2023-04-24T03:44:52;10.00;99.90
59146;DHT22;44928;53.074;6.646;2023-04-24T03:47:18;10.00;99.90
59146;DHT22;44928;53.074;6.646;2023-04-24T03:49:44;10.10;99.90
59146;DHT22;44928;53.074;6.646;2023-04-24T03:52:10;10.10;99.90
59146;DHT22;44928;53.074;6.646;2023-04-24T03:54:36;10.10;99.90
59146;DHT22;44928;53.074;6.646;2023-04-24T03:57:01;10.00;99.90
59146;DHT22;44928;53.074;6.646;2023-04-24T03:59:28;10.00;99.90
59146;DHT22;44928;53.074;6.646;2023-04-24T04:01:54;10.00;99.90
59146;DHT22;44928;53.074;6.646;2023-04-24T04:04:20;10.00;99.90
59146;DHT22;44928;53.074;6.646;2023-04-24T04:06:46;10.00;99.90
59146;DHT22;44928;53.074;6.646;2023-04-24T04:09:12;10.00;99.90
59146;DHT22;44928;53.074;6.646;2023-04-24T04:11:38;10.00;99.90
59146;DHT22;44928;53.074;6.646;2023-04-24T04:14:04;10.00;99.90
59146;DHT22;44928;53.074;6.646;2023-04-24T04:16:29;9.90;99.90
59146;DHT22;44928;53.074;6.646;2023-04-24T04:18:55;9.90;99.90
59146;DHT22;44928;53.074;6.646;2023-04-24T04:21:21;9.90;99.90
59146;DHT22;44928;53.074;6.646;2023-04-24T04:23:47;9.90;99.90
59146;DHT22;44928;53.074;6.646;2023-04-24T04:26:13;9.90;99.90
59146;DHT22;44928;53.074;6.646;2023-04-24T04:28:39;9.90;99.90
59146;DHT22;44928;53.074;6.646;2023-04-24T04:31:05;9.90;99.90
59146;DHT22;44928;53.074;6.646;2023-04-24T04:33:33;9.90;99.90
59146;DHT22;44928;53.074;6.646;2023-04-24T04:35:59;9.90;99.90
59146;DHT22;44928;53.074;6.646;2023-04-24T04:38:26;9.90;99.90
59146;DHT22;44928;53.074;6.646;2023-04-24T04:40:55;9.90;99.90
59146;DHT22;44928;53.074;6.646;2023-04-24T04:43:24;9.90;99.90
59146;DHT22;44928;53.074;6.646;2023-04-24T04:45:51;9.90;99.90
59146;DHT22;44928;53.074;6.646;2023-04-24T04:48:18;9.90;99.90
59146;DHT22;44928;53.074;6.646;2023-04-24T04:50:44;9.80;99.90
59146;DHT22;44928;53.074;6.646;2023-04-24T04:53:10;9.80;99.90
59146;DHT22;44928;53.074;6.646;2023-04-24T04:55:37;9.80;99.90
59146;DHT22;44928;53.074;6.646;2023-04-24T04:58:03;9.80;99.90
59146;DHT22;44928;53.074;6.646;2023-04-24T05:00:28;9.80;99.90
59146;DHT22;44928;53.074;6.646;2023-04-24T05:02:59;9.80;99.90
59146;DHT22;44928;53.074;6.646;2023-04-24T05:05:25;9.80;99.90
59146;DHT22;44928;53.074;6.646;2023-04-24T05:07:51;9.90;99.90
59146;DHT22;44928;53.074;6.646;2023-04-24T05:10:17;9.90;99.90
59146;DHT22;44928;53.074;6.646;2023-04-24T05:12:43;9.80;99.90
59146;DHT22;44928;53.074;6.646;2023-04-24T05:15:09;9.80;99.90
59146;DHT22;44928;53.074;6.646;2023-04-24T05:17:36;9.80;99.90
59146;DHT22;44928;53.074;6.646;2023-04-24T05:20:03;9.80;99.90
59146;DHT22;44928;53.074;6.646;2023-04-24T05:22:31;9.80;99.90
59146;DHT22;44928;53.074;6.646;2023-04-24T05:24:57;9.80;99.90
59146;DHT22;44928;53.074;6.646;2023-04-24T05:27:23;9.80;99.90
59146;DHT22;44928;53.074;6.646;2023-04-24T05:29:48;9.70;99.90
59146;DHT22;44928;53.074;6.646;2023-04-24T05:32:14;9.70;99.90
59146;DHT22;44928;53.074;6.646;2023-04-24T05:34:40;9.70;99.90
59146;DHT22;44928;53.074;6.646;2023-04-24T05:37:06;9.70;99.90
59146;DHT22;44928;53.074;6.646;2023-04-24T05:39:34;9.60;99.90
59146;DHT22;44928;53.074;6.646;2023-04-24T05:42:01;9.70;99.90
59146;DHT22;44928;53.074;6.646;2023-04-24T05:44:27;9.60;99.90
59146;DHT22;44928;53.074;6.646;2023-04-24T05:46:53;9.60;99.90
59146;DHT22;44928;53.074;6.646;2023-04-24T05:49:20;9.70;99.90
59146;DHT22;44928;53.074;6.646;2023-04-24T05:51:46;9.70;99.90
59146;DHT22;44928;53.074;6.646;2023-04-24T05:54:12;9.70;99.90
59146;DHT22;44928;53.074;6.646;2023-04-24T05:56:38;9.80;99.90
59146;DHT22;44928;53.074;6.646;2023-04-24T05:59:04;9.80;99.90
59146;DHT22;44928;53.074;6.646;2023-04-24T06:01:30;9.80;99.90
59146;DHT22;44928;53.074;6.646;2023-04-24T06:03:57;9.80;99.90
59146;DHT22;44928;53.074;6.646;2023-04-24T06:06:24;9.90;99.90
59146;DHT22;44928;53.074;6.646;2023-04-24T06:08:49;9.90;99.90
59146;DHT22;44928;53.074;6.646;2023-04-24T06:11:15;9.90;99.90
59146;DHT22;44928;53.074;6.646;2023-04-24T06:13:41;9.90;99.90
59146;DHT22;44928;53.074;6.646;2023-04-24T06:16:07;9.90;99.90
59146;DHT22;44928;53.074;6.646;2023-04-24T06:18:33;9.90;99.90
59146;DHT22;44928;53.074;6.646;2023-04-24T06:20:59;10.00;99.90
59146;DHT22;44928;53.074;6.646;2023-04-24T06:23:25;10.00;99.90
59146;DHT22;44928;53.074;6.646;2023-04-24T06:25:51;10.00;99.90
59146;DHT22;44928;53.074;6.646;2023-04-24T06:28:17;10.00;99.90
59146;DHT22;44928;53.074;6.646;2023-04-24T06:30:42;10.10;99.90
59146;DHT22;44928;53.074;6.646;2023-04-24T06:33:09;10.10;99.90
59146;DHT22;44928;53.074;6.646;2023-04-24T06:35:36;10.10;99.90
59146;DHT22;44928;53.074;6.646;2023-04-24T06:38:03;10.10;99.90
59146;DHT22;44928;53.074;6.646;2023-04-24T06:40:29;10.10;99.90
59146;DHT22;44928;53.074;6.646;2023-04-24T06:42:55;10.10;99.90
59146;DHT22;44928;53.074;6.646;2023-04-24T06:45:22;10.20;99.90
59146;DHT22;44928;53.074;6.646;2023-04-24T06:47:47;10.20;99.90
59146;DHT22;44928;53.074;6.646;2023-04-24T06:50:13;10.20;99.90
59146;DHT22;44928;53.074;6.646;2023-04-24T06:52:40;10.20;99.90
59146;DHT22;44928;53.074;6.646;2023-04-24T06:55:09;10.20;99.90
59146;DHT22;44928;53.074;6.646;2023-04-24T06:57:36;10.30;99.90
59146;DHT22;44928;53.074;6.646;2023-04-24T07:00:04;10.20;99.90
59146;DHT22;44928;53.074;6.646;2023-04-24T07:02:30;10.30;99.90
59146;DHT22;44928;53.074;6.646;2023-04-24T07:04:56;10.30;99.90
59146;DHT22;44928;53.074;6.646;2023-04-24T07:07:22;10.30;99.90
59146;DHT22;44928;53.074;6.646;2023-04-24T07:09:50;10.30;99.90
59146;DHT22;44928;53.074;6.646;2023-04-24T07:12:16;10.30;99.90
59146;DHT22;44928;53.074;6.646;2023-04-24T07:14:42;10.30;99.90
59146;DHT22;44928;53.074;6.646;2023-04-24T07:17:09;10.30;99.90
59146;DHT22;44928;53.074;6.646;2023-04-24T07:19:35;10.30;99.90
59146;DHT22;44928;53.074;6.646;2023-04-24T07:22:01;10.30;99.90
59146;DHT22;44928;53.074;6.646;2023-04-24T07:24:27;10.30;99.90
59146;DHT22;44928;53.074;6.646;2023-04-24T07:26:54;10.30;99.90
59146;DHT22;44928;53.074;6.646;2023-04-24T07:29:20;10.30;99.90
59146;DHT22;44928;53.074;6.646;2023-04-24T07:31:46;10.30;99.90
59146;DHT22;44928;53.074;6.646;2023-04-24T07:34:12;10.30;99.90
59146;DHT22;44928;53.074;6.646;2023-04-24T07:36:38;10.30;99.90
59146;DHT22;44928;53.074;6.646;2023-04-24T07:39:07;10.30;99.90
59146;DHT22;44928;53.074;6.646;2023-04-24T07:41:33;10.30;99.90
59146;DHT22;44928;53.074;6.646;2023-04-24T07:43:59;10.30;99.90
59146;DHT22;44928;53.074;6.646;2023-04-24T07:46:25;10.40;99.90
59146;DHT22;44928;53.074;6.646;2023-04-24T07:48:53;10.30;99.90
59146;DHT22;44928;53.074;6.646;2023-04-24T07:51:19;10.40;99.90
59146;DHT22;44928;53.074;6.646;2023-04-24T07:53:45;10.30;99.90
59146;DHT22;44928;53.074;6.646;2023-04-24T07:56:11;10.30;99.90
59146;DHT22;44928;53.074;6.646;2023-04-24T07:58:36;10.30;99.90
59146;DHT22;44928;53.074;6.646;2023-04-24T08:01:02;10.30;99.90
59146;DHT22;44928;53.074;6.646;2023-04-24T08:03:28;10.30;99.90
59146;DHT22;44928;53.074;6.646;2023-04-24T08:05:54;10.30;99.90
59146;DHT22;44928;53.074;6.646;2023-04-24T08:08:21;10.20;99.90
59146;DHT22;44928;53.074;6.646;2023-04-24T08:10:47;10.20;99.90
59146;DHT22;44928;53.074;6.646;2023-04-24T08:13:13;10.20;99.90
59146;DHT22;44928;53.074;6.646;2023-04-24T08:15:39;10.20;99.90
59146;DHT22;44928;53.074;6.646;2023-04-24T08:18:05;10.20;99.90
59146;DHT22;44928;53.074;6.646;2023-04-24T08:20:31;10.10;99.90
59146;DHT22;44928;53.074;6.646;2023-04-24T08:22:57;10.10;99.90
59146;DHT22;44928;53.074;6.646;2023-04-24T08:25:23;10.10;99.90
59146;DHT22;44928;53.074;6.646;2023-04-24T08:27:50;10.10;99.90
59146;DHT22;44928;53.074;6.646;2023-04-24T08:30:17;10.00;99.90
59146;DHT22;44928;53.074;6.646;2023-04-24T08:32:43;10.00;99.90
59146;DHT22;44928;53.074;6.646;2023-04-24T08:35:09;10.00;99.90
59146;DHT22;44928;53.074;6.646;2023-04-24T08:37:35;10.00;99.90
59146;DHT22;44928;53.074;6.646;2023-04-24T08:40:06;10.00;99.90
59146;DHT22;44928;53.074;6.646;2023-04-24T08:42:36;9.90;99.90
59146;DHT22;44928;53.074;6.646;2023-04-24T08:45:02;9.90;99.90
59146;DHT22;44928;53.074;6.646;2023-04-24T08:47:29;9.80;99.90
59146;DHT22;44928;53.074;6.646;2023-04-24T08:49:56;9.80;99.90
59146;DHT22;44928;53.074;6.646;2023-04-24T08:52:23;9.80;99.90
59146;DHT22;44928;53.074;6.646;2023-04-24T08:54:49;9.70;99.90
59146;DHT22;44928;53.074;6.646;2023-04-24T08:57:15;9.70;99.90
59146;DHT22;44928;53.074;6.646;2023-04-24T08:59:42;9.70;99.90
59146;DHT22;44928;53.074;6.646;2023-04-24T09:02:10;9.70;99.90
59146;DHT22;44928;53.074;6.646;2023-04-24T09:04:37;9.60;99.90
59146;DHT22;44928;53.074;6.646;2023-04-24T09:07:03;9.60;99.90
59146;DHT22;44928;53.074;6.646;2023-04-24T09:09:33;9.50;99.90
59146;DHT22;44928;53.074;6.646;2023-04-24T09:12:00;9.50;99.90
59146;DHT22;44928;53.074;6.646;2023-04-24T09:14:26;9.60;99.90
59146;DHT22;44928;53.074;6.646;2023-04-24T09:16:53;9.60;99.90
59146;DHT22;44928;53.074;6.646;2023-04-24T09:19:19;9.50;99.90
59146;DHT22;44928;53.074;6.646;2023-04-24T09:21:47;9.50;99.90
59146;DHT22;44928;53.074;6.646;2023-04-24T09:24:18;9.40;99.90
59146;DHT22;44928;53.074;6.646;2023-04-24T09:26:46;9.40;99.90
59146;DHT22;44928;53.074;6.646;2023-04-24T09:29:18;9.40;99.90
59146;DHT22;44928;53.074;6.646;2023-04-24T09:31:45;9.40;99.90
59146;DHT22;44928;53.074;6.646;2023-04-24T09:34:12;9.40;99.90
59146;DHT22;44928;53.074;6.646;2023-04-24T09:36:42;9.50;99.90
59146;DHT22;44928;53.074;6.646;2023-04-24T09:39:10;9.40;99.90
59146;DHT22;44928;53.074;6.646;2023-04-24T09:41:50;9.40;99.90
59146;DHT22;44928;53.074;6.646;2023-04-24T09:44:21;9.40;99.90
59146;DHT22;44928;53.074;6.646;2023-04-24T09:47:08;9.40;99.90
59146;DHT22;44928;53.074;6.646;2023-04-24T09:49:35;9.40;99.90
59146;DHT22;44928;53.074;6.646;2023-04-24T09:52:09;9.40;99.90
59146;DHT22;44928;53.074;6.646;2023-04-24T09:54:36;9.50;99.90
59146;DHT22;44928;53.074;6.646;2023-04-24T09:57:02;9.50;99.90
59146;DHT22;44928;53.074;6.646;2023-04-24T09:59:29;9.50;99.90
59146;DHT22;44928;53.074;6.646;2023-04-24T10:01:55;9.50;99.90
59146;DHT22;44928;53.074;6.646;2023-04-24T10:04:22;9.50;99.90
59146;DHT22;44928;53.074;6.646;2023-04-24T10:06:50;9.50;99.90
59146;DHT22;44928;53.074;6.646;2023-04-24T10:09:25;9.50;99.90
59146;DHT22;44928;53.074;6.646;2023-04-24T10:11:52;9.50;99.90
59146;DHT22;44928;53.074;6.646;2023-04-24T10:14:20;9.60;99.90
59146;DHT22;44928;53.074;6.646;2023-04-24T10:16:47;9.70;99.90
59146;DHT22;44928;53.074;6.646;2023-04-24T10:19:16;9.70;99.90
59146;DHT22;44928;53.074;6.646;2023-04-24T10:21:44;9.70;99.90
59146;DHT22;44928;53.074;6.646;2023-04-24T10:24:18;9.70;99.90
59146;DHT22;44928;53.074;6.646;2023-04-24T10:26:48;9.80;99.90
59146;DHT22;44928;53.074;6.646;2023-04-24T10:29:17;9.80;99.90
59146;DHT22;44928;53.074;6.646;2023-04-24T10:31:43;9.80;99.90
59146;DHT22;44928;53.074;6.646;2023-04-24T10:34:12;9.80;99.90
59146;DHT22;44928;53.074;6.646;2023-04-24T10:36:43;9.90;99.90
59146;DHT22;44928;53.074;6.646;2023-04-24T10:39:12;9.90;99.90
59146;DHT22;44928;53.074;6.646;2023-04-24T10:41:38;9.90;99.90
59146;DHT22;44928;53.074;6.646;2023-04-24T10:44:12;9.90;99.90
59146;DHT22;44928;53.074;6.646;2023-04-24T10:46:42;9.90;99.90
59146;DHT22;44928;53.074;6.646;2023-04-24T10:49:08;9.90;99.90
59146;DHT22;44928;53.074;6.646;2023-04-24T10:51:51;9.80;99.90
59146;DHT22;44928;53.074;6.646;2023-04-24T10:54:36;9.90;99.90
59146;DHT22;44928;53.074;6.646;2023-04-24T11:02:38;10.10;99.90
59146;DHT22;44928;53.074;6.646;2023-04-24T11:05:06;10.20;99.90
59146;DHT22;44928;53.074;6.646;2023-04-24T11:10:38;10.20;99.90
59146;DHT22;44928;53.074;6.646;2023-04-24T11:13:04;10.20;99.90
59146;DHT22;44928;53.074;6.646;2023-04-24T11:15:31;10.20;99.90
59146;DHT22;44928;53.074;6.646;2023-04-24T11:17:57;10.20;99.90
59146;DHT22;44928;53.074;6.646;2023-04-24T11:20:23;10.20;99.90
59146;DHT22;44928;53.074;6.646;2023-04-24T11:22:53;10.20;99.90
59146;DHT22;44928;53.074;6.646;2023-04-24T11:25:21;10.20;99.90
59146;DHT22;44928;53.074;6.646;2023-04-24T11:27:48;10.10;99.90
59146;DHT22;44928;53.074;6.646;2023-04-24T11:30:19;10.10;99.90
59146;DHT22;44928;53.074;6.646;2023-04-24T11:32:50;10.10;99.90
59146;DHT22;44928;53.074;6.646;2023-04-24T11:35:23;10.10;99.90
59146;DHT22;44928;53.074;6.646;2023-04-24T11:37:54;10.20;99.90
59146;DHT22;44928;53.074;6.646;2023-04-24T11:40:21;10.10;99.90
59146;DHT22;44928;53.074;6.646;2023-04-24T11:42:50;10.20;99.90
59146;DHT22;44928;53.074;6.646;2023-04-24T11:45:16;10.20;99.90
59146;DHT22;44928;53.074;6.646;2023-04-24T11:47:43;10.20;99.90
59146;DHT22;44928;53.074;6.646;2023-04-24T11:50:15;10.30;99.90
59146;DHT22;44928;53.074;6.646;2023-04-24T11:52:44;10.30;99.90
59146;DHT22;44928;53.074;6.646;2023-04-24T11:55:23;10.40;99.90
59146;DHT22;44928;53.074;6.646;2023-04-24T11:57:58;10.40;99.90
59146;DHT22;44928;53.074;6.646;2023-04-24T12:00:32;10.40;99.90
59146;DHT22;44928;53.074;6.646;2023-04-24T12:03:10;10.30;99.90
59146;DHT22;44928;53.074;6.646;2023-04-24T12:05:37;10.30;99.90
59146;DHT22;44928;53.074;6.646;2023-04-24T12:08:03;10.30;99.90
59146;DHT22;44928;53.074;6.646;2023-04-24T12:10:31;10.30;99.90
59146;DHT22;44928;53.074;6.646;2023-04-24T12:12:58;10.30;99.90
59146;DHT22;44928;53.074;6.646;2023-04-24T12:15:25;10.10;99.90
59146;DHT22;44928;53.074;6.646;2023-04-24T12:17:53;10.10;99.90
59146;DHT22;44928;53.074;6.646;2023-04-24T12:20:30;10.00;99.90
59146;DHT22;44928;53.074;6.646;2023-04-24T12:22:57;9.90;99.90
59146;DHT22;44928;53.074;6.646;2023-04-24T12:25:26;9.90;99.90
59146;DHT22;44928;53.074;6.646;2023-04-24T12:30:29;9.80;99.90
59146;DHT22;44928;53.074;6.646;2023-04-24T12:32:57;9.80;99.90
59146;DHT22;44928;53.074;6.646;2023-04-24T12:35:24;9.80;99.90
59146;DHT22;44928;53.074;6.646;2023-04-24T12:37:50;9.90;99.90
59146;DHT22;44928;53.074;6.646;2023-04-24T12:40:18;9.80;99.90
59146;DHT22;44928;53.074;6.646;2023-04-24T12:42:46;9.80;99.90
59146;DHT22;44928;53.074;6.646;2023-04-24T12:45:14;9.70;99.90
59146;DHT22;44928;53.074;6.646;2023-04-24T12:47:41;9.80;99.90
59146;DHT22;44928;53.074;6.646;2023-04-24T12:50:08;9.80;99.90
59146;DHT22;44928;53.074;6.646;2023-04-24T12:52:35;9.90;99.90
59146;DHT22;44928;53.074;6.646;2023-04-24T12:55:01;9.90;99.90
59146;DHT22;44928;53.074;6.646;2023-04-24T12:57:29;10.00;99.90
59146;DHT22;44928;53.074;6.646;2023-04-24T12:59:57;10.00;99.90
59146;DHT22;44928;53.074;6.646;2023-04-24T13:02:26;10.00;99.90
59146;DHT22;44928;53.074;6.646;2023-04-24T13:04:53;10.10;99.90
59146;DHT22;44928;53.074;6.646;2023-04-24T13:07:19;10.00;99.90
59146;DHT22;44928;53.074;6.646;2023-04-24T13:09:46;10.00;99.90
59146;DHT22;44928;53.074;6.646;2023-04-24T13:12:13;10.00;99.90
59146;DHT22;44928;53.074;6.646;2023-04-24T13:14:40;10.10;99.90
59146;DHT22;44928;53.074;6.646;2023-04-24T13:17:06;10.10;99.90
59146;DHT22;44928;53.074;6.646;2023-04-24T13:19:40;10.20;99.90
59146;DHT22;44928;53.074;6.646;2023-04-24T13:22:08;10.20;99.90
59146;DHT22;44928;53.074;6.646;2023-04-24T13:24:34;10.20;99.90
59146;DHT22;44928;53.074;6.646;2023-04-24T13:27:00;10.10;99.90
59146;DHT22;44928;53.074;6.646;2023-04-24T13:29:26;10.10;99.90
59146;DHT22;44928;53.074;6.646;2023-04-24T13:31:53;10.10;99.90
59146;DHT22;44928;53.074;6.646;2023-04-24T13:34:23;10.30;99.90
59146;DHT22;44928;53.074;6.646;2023-04-24T13:36:50;10.20;99.90
59146;DHT22;44928;53.074;6.646;2023-04-24T13:39:16;10.30;99.90
59146;DHT22;44928;53.074;6.646;2023-04-24T13:41:42;10.30;99.90
59146;DHT22;44928;53.074;6.646;2023-04-24T13:44:08;10.30;99.90
59146;DHT22;44928;53.074;6.646;2023-04-24T13:46:34;10.40;99.90
59146;DHT22;44928;53.074;6.646;2023-04-24T13:49:19;10.30;99.90
59146;DHT22;44928;53.074;6.646;2023-04-24T13:51:58;10.30;99.90
59146;DHT22;44928;53.074;6.646;2023-04-24T13:54:24;10.20;99.90
59146;DHT22;44928;53.074;6.646;2023-04-24T13:56:51;10.20;99.90
59146;DHT22;44928;53.074;6.646;2023-04-24T13:59:17;10.20;99.90
59146;DHT22;44928;53.074;6.646;2023-04-24T14:01:44;10.20;99.90
59146;DHT22;44928;53.074;6.646;2023-04-24T14:04:10;10.20;99.90
59146;DHT22;44928;53.074;6.646;2023-04-24T14:06:36;10.20;99.90
59146;DHT22;44928;53.074;6.646;2023-04-24T14:09:02;10.30;99.90
59146;DHT22;44928;53.074;6.646;2023-04-24T14:11:28;10.30;99.90
59146;DHT22;44928;53.074;6.646;2023-04-24T14:13:55;10.30;99.90
59146;DHT22;44928;53.074;6.646;2023-04-24T14:16:24;10.20;99.90
59146;DHT22;44928;53.074;6.646;2023-04-24T14:18:50;10.20;99.90
59146;DHT22;44928;53.074;6.646;2023-04-24T14:21:16;10.20;99.90
59146;DHT22;44928;53.074;6.646;2023-04-24T14:23:41;10.20;99.90
59146;DHT22;44928;53.074;6.646;2023-04-24T14:26:07;10.10;99.90
59146;DHT22;44928;53.074;6.646;2023-04-24T14:28:33;10.00;99.90
59146;DHT22;44928;53.074;6.646;2023-04-24T14:30:59;9.90;99.90
59146;DHT22;44928;53.074;6.646;2023-04-24T14:33:25;9.90;99.90
59146;DHT22;44928;53.074;6.646;2023-04-24T14:35:51;9.90;99.90
59146;DHT22;44928;53.074;6.646;2023-04-24T14:38:21;9.80;99.90
59146;DHT22;44928;53.074;6.646;2023-04-24T14:40:47;9.80;99.90
59146;DHT22;44928;53.074;6.646;2023-04-24T14:43:13;9.80;99.90
59146;DHT22;44928;53.074;6.646;2023-04-24T14:45:38;9.80;99.90
59146;DHT22;44928;53.074;6.646;2023-04-24T14:48:07;9.80;99.90
59146;DHT22;44928;53.074;6.646;2023-04-24T14:50:33;9.80;99.90
59146;DHT22;44928;53.074;6.646;2023-04-24T14:53:01;9.80;99.90
59146;DHT22;44928;53.074;6.646;2023-04-24T14:55:27;9.80;99.90
59146;DHT22;44928;53.074;6.646;2023-04-24T14:57:54;9.70;99.90
59146;DHT22;44928;53.074;6.646;2023-04-24T15:00:21;9.70;99.90
59146;DHT22;44928;53.074;6.646;2023-04-24T15:02:48;9.70;99.90
59146;DHT22;44928;53.074;6.646;2023-04-24T15:05:14;9.70;99.90
59146;DHT22;44928;53.074;6.646;2023-04-24T15:07:40;9.70;99.90
59146;DHT22;44928;53.074;6.646;2023-04-24T15:10:07;9.70;99.90
59146;DHT22;44928;53.074;6.646;2023-04-24T15:12:33;9.80;99.90
59146;DHT22;44928;53.074;6.646;2023-04-24T15:15:01;9.80;99.90
59146;DHT22;44928;53.074;6.646;2023-04-24T15:17:26;9.90;99.90
59146;DHT22;44928;53.074;6.646;2023-04-24T15:19:53;9.90;99.90
59146;DHT22;44928;53.074;6.646;2023-04-24T15:22:19;9.90;99.90
59146;DHT22;44928;53.074;6.646;2023-04-24T15:24:44;10.00;99.90
59146;DHT22;44928;53.074;6.646;2023-04-24T15:27:10;9.90;99.90
59146;DHT22;44928;53.074;6.646;2023-04-24T15:29:36;9.90;99.90
59146;DHT22;44928;53.074;6.646;2023-04-24T15:32:02;9.90;99.90
59146;DHT22;44928;53.074;6.646;2023-04-24T15:34:28;9.80;99.90
59146;DHT22;44928;53.074;6.646;2023-04-24T15:36:54;9.80;99.90
59146;DHT22;44928;53.074;6.646;2023-04-24T15:39:24;9.70;99.90
59146;DHT22;44928;53.074;6.646;2023-04-24T15:41:50;9.70;99.90
59146;DHT22;44928;53.074;6.646;2023-04-24T15:44:16;9.60;99.90
59146;DHT22;44928;53.074;6.646;2023-04-24T15:46:42;9.60;99.90